Latest Coastal Weather Observations for Redcliffe

IDQ60701

Issued at 2:01 pm EST Sunday 11 December 2016 (issued every 10 minutes, with the page automatically refreshed every 10 minutes)

About coastal observations | Map of coastal stations | Coastal observations for QLD | Marine services | Other Formats
Station Details ID: 040958 Name: REDCLIFFE Lat: -27.22 Lon: 153.09 Height: 12.6 m
Data from the previous 72 hours. | See also: Recent months at Redcliffe
Date/Time
EST
Temp
°C
Wind Pressure Rain since
9am
mm
Weather Cloud Vis
km
Sea
Height
m
Swell
Dir  Spd
kts
Gust
kts
hPa Trend Height
m
Period
s
Dir
11/01:30pm 23.9 E 11 14 1020.9 - 0.0 - - - - - - -
11/01:00pm 24.3 ESE 12 15 1021.1 - 0.0 - - - - - - -
11/12:30pm 24.4 ESE 12 15 1021.3 - 0.0 - - - - - - -
11/12:00pm 24.4 ESE 13 16 1021.4 - 0.0 - - - - - - -
11/11:30am 24.4 ESE 11 14 1021.5 - 0.0 - - - - - - -
11/11:00am 24.7 ESE 12 15 1021.5 - 0.0 - - - - - - -
11/10:30am 24.7 ESE 13 16 1021.5 - 0.0 - - - - - - -
11/10:00am 25.1 ESE 14 18 1021.6 - 0.0 - - - - - - -
11/09:30am 25.7 SE 13 16 1021.7 - 0.0 - - - - - - -
11/09:00am 24.1 SE 10 13 1021.7 - 0.0 - - - - - - -
11/08:30am 24.0 SE 11 15 1021.7 - 0.0 - - - - - - -
11/08:00am 23.3 ESE 11 15 1021.6 - 0.0 - - - - - - -
11/07:30am 23.5 SE 12 15 1021.4 - 0.0 - - - - - - -
11/07:00am 23.3 SE 13 16 1021.0 - 0.0 - - - - - - -
11/06:30am 22.9 SE 12 16 1020.7 - 0.0 - - - - - - -
11/06:00am 22.5 ESE 12 15 1020.3 - 0.0 - - - - - - -
11/05:30am 22.2 ESE 11 14 1020.2 - 0.0 - - - - - - -
11/05:00am 21.8 ESE 12 16 1019.7 - 0.0 - - - - - - -
11/04:30am 22.1 ESE 13 15 1019.6 - 0.0 - - - - - - -
11/04:00am 22.1 E 13 16 1019.6 - 0.0 - - - - - - -
11/03:30am 22.2 ESE 13 16 1019.5 - 0.0 - - - - - - -
11/03:00am 22.2 ESE 14 17 1019.4 - 0.0 - - - - - - -
11/02:30am 22.3 ESE 15 17 1019.4 - 0.0 - - - - - - -
11/02:00am 22.2 E 15 18 1019.7 - 0.0 - - - - - - -
11/01:30am 22.4 ESE 14 16 1020.0 - 0.0 - - - - - - -
11/01:00am 22.4 E 13 17 1020.2 - 0.0 - - - - - - -
11/12:30am 22.3 E 14 17 1020.6 - 0.0 - - - - - - -
11/12:00am 22.6 ESE 15 19 1020.9 - 0.0 - - - - - - -
 
Date/Time
EST
Temp
°C
Wind Pressure Rain since
9am
mm
Weather Cloud Vis
km
Sea
Height
m
Swell
Dir  Spd
kts
Gust
kts
hPa Trend Height
m
Period
s
Dir
10/11:30pm 22.6 E 15 18 1021.1 - 0.0 - - - - - - -
10/11:00pm 22.6 ESE 16 19 1021.3 - 0.0 - - - - - - -
10/10:30pm 22.8 E 17 20 1021.3 - 0.0 - - - - - - -
10/10:00pm 22.9 E 17 20 1021.3 - 0.0 - - - - - - -
10/09:30pm 23.0 E 17 20 1021.3 - 0.0 - - - - - - -
10/09:00pm 22.9 ESE 17 20 1021.2 - 0.0 - - - - - - -
10/08:30pm 22.9 E 18 21 1020.9 - 0.0 - - - - - - -
10/08:00pm 22.9 E 17 21 1020.8 - 0.0 - - - - - - -
10/07:30pm 22.9 ESE 18 21 1020.7 - 0.0 - - - - - - -
10/07:00pm 23.0 E 19 21 1020.6 - 0.0 - - - - - - -
10/06:30pm 23.0 E 19 22 1020.3 - 0.0 - - - - - - -
10/06:00pm 23.2 E 18 21 1020.0 - 0.0 - - - - - - -
10/05:30pm 23.3 E 17 20 1019.7 - 0.0 - - - - - - -
10/05:00pm 23.5 ESE 18 21 1019.3 - 0.0 - - - - - - -
10/04:30pm 23.7 ESE 19 22 1019.1 - 0.0 - - - - - - -
10/04:00pm 23.7 ESE 17 22 1019.1 - 0.0 - - - - - - -
10/03:30pm 23.9 E 18 20 1018.9 - 0.0 - - - - - - -
10/03:00pm 24.4 ESE 17 19 1019.3 - 0.0 - - - - - - -
10/02:30pm 24.5 ESE 18 21 1019.3 - 0.0 - - - - - - -
10/02:00pm 24.8 ESE 18 21 1019.4 - 0.0 - - - - - - -
10/01:30pm 24.1 ESE 19 21 1019.8 - 0.0 - - - - - - -
10/01:00pm 23.7 ESE 17 21 1020.1 - 0.0 - - - - - - -
10/12:30pm 23.9 ESE 19 22 1020.1 - 0.0 - - - - - - -
10/12:00pm 24.4 ESE 19 21 1020.2 - 0.0 - - - - - - -
10/11:30am 24.8 ESE 18 21 1020.1 - 0.0 - - - - - - -
10/11:00am 24.9 ESE 19 23 1020.2 - 0.0 - - - - - - -
10/10:30am 24.6 SE 18 21 1020.1 - 0.0 - - - - - - -
10/10:00am 25.1 SE 19 22 1020.1 - 0.0 - - - - - - -
10/09:30am 24.5 SE 19 22 1019.9 - 0.0 - - - - - - -
10/09:00am 24.4 SE 18 22 1020.1 - 0.8 - - - - - - -
10/08:30am 24.2 SE 18 22 1019.8 - 0.8 - - - - - - -
10/08:00am 24.0 SE 18 21 1019.6 - 0.8 - - - - - - -
10/07:30am 23.9 SSE 18 22 1019.4 - 0.8 - - - - - - -
10/07:00am 23.8 SE 19 22 1019.0 - 0.8 - - - - - - -
10/06:30am 23.5 SE 20 24 1018.4 - 0.8 - - - - - - -
10/06:00am 23.4 SE 21 24 1017.8 - 0.8 - - - - - - -
10/05:30am 23.3 SE 19 23 1017.5 - 0.8 - - - - - - -
10/05:00am 23.2 SE 21 25 1016.9 - 0.8 - - - - - - -
10/04:30am 23.3 SE 20 24 1016.6 - 0.8 - - - - - - -
10/04:00am 23.4 SE 22 27 1016.1 - 0.8 - - - - - - -
10/03:30am 23.3 SE 21 27 1015.7 - 0.8 - - - - - - -
10/03:00am 23.4 SE 19 23 1015.5 - 0.8 - - - - - - -
10/02:30am 23.6 SE 19 24 1015.1 - 0.8 - - - - - - -
10/02:00am 23.6 SE 20 23 1014.8 - 0.8 - - - - - - -
10/01:30am 23.7 SE 20 22 1014.5 - 0.8 - - - - - - -
10/01:00am 23.8 ESE 20 24 1014.4 - 0.8 - - - - - - -
10/12:30am 23.8 ESE 20 26 1014.4 - 0.8 - - - - - - -
10/12:00am 23.9 SE 21 26 1014.3 - 0.8 - - - - - - -
 
Date/Time
EST
Temp
°C
Wind Pressure Rain since
9am
mm
Weather Cloud Vis
km
Sea
Height
m
Swell
Dir  Spd
kts
Gust
kts
hPa Trend Height
m
Period
s
Dir
09/11:30pm 23.7 SSE 21 24 1014.4 - 0.8 - - - - - - -
09/11:00pm 23.3 SSE 19 23 1014.4 - 0.8 - - - - - - -
09/10:30pm 23.4 SSE 15 18 1014.2 - 0.8 - - - - - - -
09/10:00pm 23.2 WSW 5 9 1014.0 - 0.8 - - - - - - -
09/09:30pm 23.9 NNW 6 7 1013.4 - 0.8 - - - - - - -
09/09:00pm 24.5 N 8 10 1013.2 - 0.8 - - - - - - -
09/08:30pm 25.0 NNE 6 9 1012.9 - 0.8 - - - - - - -
09/08:00pm 25.1 NNW 5 7 1012.5 - 0.8 - - - - - - -
09/07:30pm 24.7 NNW 6 7 1012.3 - 0.8 - - - - - - -
09/07:00pm 25.2 NNE 6 7 1012.1 - 0.8 - - - - - - -
09/06:30pm 26.4 NW 3 4 1011.6 - 0.8 - - - - - - -
09/06:00pm 27.7 WNW 3 5 1011.4 - 0.6 - - - - - - -
09/05:30pm 27.3 W 5 8 1010.8 - 0.6 - - - - - - -
09/05:00pm 26.9 W 6 8 1010.3 - 0.6 - - - - - - -
09/04:30pm 27.7 WSW 4 6 1009.9 - 0.6 - - - - - - -
09/04:00pm 27.0 WSW 6 9 1009.8 - 0.6 - - - - - - -
09/03:30pm 27.1 WNW 5 8 1009.5 - 0.6 - - - - - - -
09/03:00pm 26.1 NW 5 6 1009.5 - 0.6 - - - - - - -
09/02:30pm 25.8 NNW 6 8 1009.7 - 0.6 - - - - - - -
09/02:00pm 25.6 N 5 6 1009.8 - 0.6 - - - - - - -
09/01:30pm 24.9 CALM 0 0 1009.7 - 0.6 - - - - - - -
09/01:00pm 24.8 N 5 6 1009.8 - 0.4 - - - - - - -
09/12:30pm 25.2 CALM 0 4 1010.1 - 0.2 - - - - - - -
09/12:00pm 24.5 W 5 7 1009.9 - 0.2 Recent precip. - - - - - -
09/11:30am 25.4 W 9 12 1009.9 - 0.0 - - - - - - -
09/11:00am 25.9 W 6 8 1009.9 - 0.0 - - - - - - -
09/10:30am 26.4 W 9 15 1009.9 - 0.0 - - - - - - -
09/10:00am 26.1 WNW 10 15 1009.8 - 0.0 - - - - - - -
09/09:30am 26.5 WNW 10 18 1009.4 - 0.0 - - - - - - -
09/09:00am 26.8 WNW 12 18 1009.0 - 9.6 - - - - - - -
09/08:30am 26.1 WNW 9 14 1009.2 - 9.6 - - - - - - -
09/08:00am 25.7 NW 7 13 1009.4 - 9.6 - - - - - - -
09/07:30am 25.2 NNW 6 8 1009.3 - 9.6 - - - - - - -
09/07:00am 25.2 WNW 7 10 1009.7 - 9.6 - - - - - - -
09/06:30am 25.0 NW 8 12 1009.8 - 9.6 - - - - - - -
09/06:00am 25.9 WNW 13 20 1009.2 - 9.6 - - - - - - -
09/05:30am 24.9 NW 6 8 1008.8 - 9.6 - - - - - - -
09/05:00am 24.5 WNW 7 9 1008.4 - 9.6 - - - - - - -
09/04:30am 24.4 WNW 7 9 1008.1 - 9.6 - - - - - - -
09/04:00am 24.3 WNW 6 9 1008.3 - 9.6 - - - - - - -
09/03:30am 24.4 WNW 7 9 1008.3 - 9.6 - - - - - - -
09/03:00am 24.4 NW 7 9 1008.4 - 9.6 - - - - - - -
09/02:30am 24.3 NNW 5 6 1008.5 - 9.6 - - - - - - -
09/02:00am 24.1 NNW 6 8 1008.5 - 9.6 - - - - - - -
09/01:30am 23.0 WNW 5 6 1008.4 - 9.6 - - - - - - -
09/01:00am 23.2 WNW 7 15 1009.2 - 4.2 - - - - - - -
09/12:30am 23.9 WNW 7 10 1009.1 - 1.0 - - - - - - -
09/12:00am 23.9 NNW 9 13 1008.4 - 1.0 Recent precip. - - - - - -
 
Date/Time
EST
Temp
°C
Wind Pressure Rain since
9am
mm
Weather Cloud Vis
km
Sea
Height
m
Swell
Dir  Spd
kts
Gust
kts
hPa Trend Height
m
Period
s
Dir
08/11:30pm 23.8 NNW 10 13 1008.8 - 1.0 - - - - - - -
08/11:00pm 24.0 NNW 13 16 1009.6 - 0.8 - - - - - - -
08/10:30pm 24.4 N 10 13 1009.3 - 0.8 - - - - - - -
08/10:00pm 24.1 NNW 7 10 1009.2 - 0.6 - - - - - - -
08/09:30pm 24.1 NW 7 8 1009.1 - 0.6 - - - - - - -
08/09:00pm 24.1 NW 7 9 1009.1 - 0.6 Rain - - - - - -
08/08:30pm 24.4 NW 7 11 1009.1 - 0.2 - - - - - - -
08/08:00pm 25.2 N 14 17 1008.9 - 0.2 - - - - - - -
08/07:30pm 25.2 NNE 14 18 1008.2 - 0.2 - - - - - - -
08/07:00pm 25.6 N 8 11 1009.4 - 0.0 - - - - - - -
08/06:30pm 25.9 NNE 7 8 1008.9 - 0.0 - - - - - - -
08/06:00pm 25.8 NW 7 13 1008.9 - 0.0 - - - - - - -
08/05:56pm 25.7 NNW 8 13 1008.8 - 0.0 - - - - - - -
08/05:30pm 25.9 N 18 21 1006.8 - 0.0 - - - - - - -
08/05:00pm 26.1 N 18 21 1006.8 - 0.0 - - - - - - -
08/04:30pm 26.2 NNE 20 25 1006.5 - 0.0 - - - - - - -
08/04:00pm 26.1 NNE 18 20 1006.8 - 0.0 - - - - - - -
08/03:30pm 25.8 NNE 17 20 1007.4 - 0.0 - - - - - - -
08/03:00pm 26.1 NNE 18 20 1007.6 - 0.0 - - - - - - -
08/02:30pm 26.2 NNE 18 20 1007.9 - 0.0 - - - - - - -

Other Formats:

Comma delimited format used in spreadsheet applications
http://www.bom.gov.au/fwo/IDQ60701/IDQ60701.95591.axf

JavaScript Object Notation format (JSON) in row-major order
http://www.bom.gov.au/fwo/IDQ60701/IDQ60701.95591.json